Time;durP1;ratioP1;P1;durP2;ratioP2;P2;SDS_P1;SDS_P2;PMS_P1;PMS_P2;Temp;Humidity;BMP_temperature;BMP_pressure;BME280_temperature;BME280_humidity;BME280_pressure;Samples;Min_cycle;Max_cycle;Signal;HPM_P1;HPM_P2
2020/12/19 00:02:21;;;;;;;3.50;1.20;;;;;;;13.22;92.86;99015.94;4399961;32;20525;-74
2020/12/19 00:04:47;;;;;;;4.12;1.37;;;;;;;13.17;92.21;99019.50;4399541;32;20352;-74
2020/12/19 00:07:12;;;;;;;3.83;1.27;;;;;;;13.16;92.90;99012.28;4395611;32;20026;-74
2020/12/19 00:09:38;;;;;;;2.67;1.17;;;;;;;13.13;92.80;99016.09;4393411;32;20034;-74
2020/12/19 00:12:05;;;;;;;3.80;1.50;;;;;;;13.16;92.80;99026.41;4400669;32;20061;-74
2020/12/19 00:14:31;;;;;;;6.82;1.83;;;;;;;13.13;92.07;99016.09;4396316;32;20525;-72
2020/12/19 00:16:57;;;;;;;9.43;2.15;;;;;;;13.14;91.94;99014.06;4398743;32;20038;-73
2020/12/19 00:19:22;;;;;;;6.82;1.55;;;;;;;13.16;91.90;99020.00;4394960;32;20133;-73
2020/12/19 00:21:48;;;;;;;3.87;1.50;;;;;;;13.18;91.37;99021.03;4395682;32;20546;-72
2020/12/19 00:24:14;;;;;;;5.12;1.92;;;;;;;13.16;92.16;99022.81;4396827;32;20053;-72
2020/12/19 00:26:42;;;;;;;7.10;1.62;;;;;;;13.16;91.23;99006.62;4404854;32;20054;-73
2020/12/19 00:29:10;;;;;;;8.50;2.10;;;;;;;13.24;90.94;99013.41;4407488;32;20057;-72
2020/12/19 00:31:36;;;;;;;7.00;1.85;;;;;;;13.28;90.41;99001.87;4405886;32;20095;-72
2020/12/19 00:34:02;;;;;;;8.20;1.85;;;;;;;13.27;90.53;99009.59;4429030;26;20148;-72
2020/12/19 00:36:28;;;;;;;6.53;1.45;;;;;;;13.32;89.67;98999.62;4423551;32;20406;-72
2020/12/19 00:38:54;;;;;;;9.45;1.50;;;;;;;13.24;90.37;99006.97;4428812;32;20104;-71
2020/12/19 00:41:23;;;;;;;6.07;1.62;;;;;;;13.27;90.29;98989.81;4431501;32;20038;-72
2020/12/19 00:43:49;;;;;;;5.68;1.73;;;;;;;13.25;90.26;99008.53;4427349;32;20415;-71
2020/12/19 00:46:17;;;;;;;7.12;1.65;;;;;;;13.21;90.10;99025.69;4427181;32;20067;-71
2020/12/19 00:48:44;;;;;;;4.90;1.73;;;;;;;13.15;89.85;98996.63;4428195;32;20049;-73
2020/12/19 00:51:12;;;;;;;5.70;1.70;;;;;;;13.16;89.70;98961.44;4427424;32;20073;-73
2020/12/19 00:53:37;;;;;;;6.35;1.80;;;;;;;13.21;90.08;98972.03;4429513;32;20081;-71
2020/12/19 00:56:03;;;;;;;10.63;1.90;;;;;;;13.21;89.59;98968.44;4427646;32;20085;-71
2020/12/19 00:58:29;;;;;;;7.10;2.03;;;;;;;13.13;89.89;98964.53;4427946;32;20037;-71
2020/12/19 01:00:54;;;;;;;6.55;1.98;;;;;;;13.16;90.25;98946.56;4426407;32;20124;-71
2020/12/19 01:03:20;;;;;;;6.40;1.70;;;;;;;13.15;89.30;98954.25;4428854;32;20022;-71
2020/12/19 01:05:45;;;;;;;5.50;1.65;;;;;;;13.17;88.76;98943.25;4427127;32;20611;-70
2020/12/19 01:08:11;;;;;;;8.00;2.20;;;;;;;13.23;88.26;98944.06;4426131;32;20366;-74
2020/12/19 01:10:37;;;;;;;14.23;2.50;;;;;;;13.26;87.48;98945.88;4429734;32;20054;-71
2020/12/19 01:13:02;;;;;;;5.37;1.62;;;;;;;13.19;88.35;98932.22;4430524;32;20414;-72
2020/12/19 01:15:28;;;;;;;7.12;1.73;;;;;;;13.22;87.23;98936.88;4430954;32;20407;-73
2020/12/19 01:17:54;;;;;;;7.82;2.55;;;;;;;13.22;87.01;98948.16;4433277;32;20530;-72
2020/12/19 01:20:19;;;;;;;5.43;2.00;;;;;;;13.32;87.31;98926.94;4429958;32;20381;-70
2020/12/19 01:22:45;;;;;;;7.60;2.03;;;;;;;13.25;87.00;98940.72;4433489;32;20030;-72
2020/12/19 01:25:11;;;;;;;9.20;2.45;;;;;;;13.33;86.56;98928.50;4431775;32;20452;-72
2020/12/19 01:27:37;;;;;;;8.05;2.03;;;;;;;13.39;85.99;98932.16;4430513;32;20053;-73
2020/12/19 01:30:04;;;;;;;7.90;2.20;;;;;;;13.29;86.25;98930.75;4432237;32;20480;-73
2020/12/19 01:32:30;;;;;;;6.95;2.10;;;;;;;13.38;86.15;98930.56;4431455;32;20331;-71
2020/12/19 01:34:56;;;;;;;9.93;1.98;;;;;;;13.32;86.14;98929.00;4404646;32;20042;-72
2020/12/19 01:37:21;;;;;;;7.53;2.10;;;;;;;13.36;85.44;98941.63;4420299;32;20686;-73
2020/12/19 01:39:47;;;;;;;7.87;2.10;;;;;;;13.35;85.56;98942.88;4409258;32;20443;-72
2020/12/19 01:42:13;;;;;;;6.55;1.65;;;;;;;13.37;85.92;98923.38;4425172;32;20057;-71
2020/12/19 01:44:38;;;;;;;7.40;2.17;;;;;;;13.30;85.61;98918.19;4421357;32;20029;-73
2020/12/19 01:47:09;;;;;;;9.13;2.05;;;;;;;13.22;86.56;98933.25;4419859;32;20444;-73
2020/12/19 01:49:35;;;;;;;7.47;1.92;;;;;;;13.30;87.35;98932.31;4419513;32;20087;-71
2020/12/19 01:52:03;;;;;;;11.88;2.30;;;;;;;13.29;87.67;98918.69;4419751;32;20670;-73
2020/12/19 01:54:30;;;;;;;8.07;2.10;;;;;;;13.15;88.30;98914.72;4419526;32;20042;-71
2020/12/19 01:56:57;;;;;;;8.18;2.47;;;;;;;13.24;87.88;98922.25;4419810;32;20092;-73
2020/12/19 01:59:25;;;;;;;7.70;2.42;;;;;;;13.14;88.47;98916.00;4420639;32;20071;-70
2020/12/19 02:01:54;;;;;;;5.40;2.03;;;;;;;13.05;89.28;98924.66;4418262;32;20078;-74
2020/12/19 02:04:21;;;;;;;8.32;2.40;;;;;;;13.08;89.47;98915.19;4418239;32;20119;-71
2020/12/19 02:06:49;;;;;;;9.93;2.53;;;;;;;13.05;89.52;98921.03;4420967;32;20060;-73
2020/12/19 02:09:17;;;;;;;8.07;2.42;;;;;;;13.09;89.45;98911.06;4418890;32;20100;-72
2020/12/19 02:11:44;;;;;;;9.07;2.35;;;;;;;13.09;89.34;98907.47;4421613;32;20026;-73
2020/12/19 02:14:11;;;;;;;11.55;3.22;;;;;;;13.15;89.00;98902.66;4419116;32;20057;-71
2020/12/19 02:16:37;;;;;;;15.25;2.70;;;;;;;13.08;89.08;98888.97;4420048;32;20582;-72
2020/12/19 02:19:12;;;;;;;9.68;2.72;;;;;;;13.06;88.89;98900.78;4419852;32;20050;-73
2020/12/19 02:21:40;;;;;;;9.45;2.28;;;;;;;13.01;89.14;98901.50;4420179;32;20099;-74
2020/12/19 02:24:06;;;;;;;9.07;2.60;;;;;;;13.05;89.82;98898.44;4421015;32;20098;-72
2020/12/19 02:26:32;;;;;;;6.93;2.62;;;;;;;13.02;89.26;98888.94;4419436;32;20303;-72
2020/12/19 02:28:57;;;;;;;11.73;3.05;;;;;;;13.03;89.83;98901.78;4425324;32;20417;-74
2020/12/19 02:31:23;;;;;;;10.07;3.47;;;;;;;13.01;90.06;98897.91;4416022;32;20034;-71
2020/12/19 02:33:48;;;;;;;9.68;2.92;;;;;;;13.01;90.71;98900.72;4416461;32;20069;-73
2020/12/19 02:36:14;;;;;;;6.35;2.87;;;;;;;13.10;90.13;98890.03;4417338;32;20444;-72
2020/12/19 02:38:40;;;;;;;7.43;2.35;;;;;;;13.08;89.75;98886.94;4419522;32;20140;-72
2020/12/19 02:41:05;;;;;;;7.30;2.80;;;;;;;13.02;89.62;98894.59;4420509;32;20105;-72
2020/12/19 02:43:31;;;;;;;7.20;2.78;;;;;;;13.03;89.72;98913.06;4421634;32;20484;-71
2020/12/19 02:45:58;;;;;;;8.38;2.70;;;;;;;12.92;89.78;98881.88;4417645;32;20140;-73
2020/12/19 02:48:24;;;;;;;14.13;3.10;;;;;;;12.89;90.90;98885.69;4419388;32;20049;-71
2020/12/19 02:50:50;;;;;;;9.63;2.87;;;;;;;12.79;91.04;98887.13;4419252;32;20128;-72
2020/12/19 02:53:15;;;;;;;6.00;2.87;;;;;;;12.81;91.17;98881.00;4420905;32;20320;-73
2020/12/19 02:55:41;;;;;;;8.95;3.15;;;;;;;12.83;91.09;98882.06;4421733;32;20650;-73
2020/12/19 02:58:06;;;;;;;10.18;3.42;;;;;;;12.79;91.14;98889.97;4420761;32;20090;-74
2020/12/19 03:00:32;;;;;;;9.75;3.22;;;;;;;12.84;90.97;98877.97;4420924;32;20061;-73
2020/12/19 03:02:58;;;;;;;8.45;3.20;;;;;;;12.88;90.89;98889.78;4420264;32;20454;-73
2020/12/19 03:05:23;;;;;;;8.70;2.58;;;;;;;12.83;91.65;98892.56;4423954;32;20054;-73
2020/12/19 03:07:49;;;;;;;9.63;2.90;;;;;;;12.85;91.21;98890.78;4425234;32;20045;-75
2020/12/19 03:10:14;;;;;;;8.15;2.70;;;;;;;12.83;91.24;98884.09;4419522;32;20053;-75
2020/12/19 03:12:40;;;;;;;7.97;2.33;;;;;;;12.87;90.24;98887.47;4418945;32;20038;-75
2020/12/19 03:15:06;;;;;;;8.27;2.70;;;;;;;12.90;90.85;98892.12;4421393;32;20371;-75
2020/12/19 03:17:31;;;;;;;7.65;2.87;;;;;;;12.80;91.18;98885.88;4417763;32;20049;-74
2020/12/19 03:19:58;;;;;;;8.82;3.05;;;;;;;12.89;91.33;98880.03;4417563;32;20038;-71
2020/12/19 03:22:23;;;;;;;11.12;2.90;;;;;;;12.75;91.60;98880.16;4418260;32;20149;-72
2020/12/19 03:24:49;;;;;;;10.80;3.37;;;;;;;12.82;91.54;98868.44;4420148;32;20038;-73
2020/12/19 03:27:14;;;;;;;9.50;2.90;;;;;;;12.80;91.06;98868.94;4417110;32;20092;-72
2020/12/19 03:29:40;;;;;;;9.23;2.92;;;;;;;12.79;91.84;98860.97;4416626;32;20042;-73
2020/12/19 03:32:06;;;;;;;7.15;2.87;;;;;;;12.82;91.59;98868.44;4420179;32;20093;-73
2020/12/19 03:34:33;;;;;;;6.43;2.70;;;;;;;12.79;91.33;98858.91;4416834;32;20041;-73
2020/12/19 03:36:59;;;;;;;6.93;2.72;;;;;;;12.83;91.79;98873.59;4419080;32;20041;-72
2020/12/19 03:39:25;;;;;;;6.60;2.80;;;;;;;12.89;91.65;98874.41;4412563;32;20157;-72
2020/12/19 03:41:51;;;;;;;5.35;2.53;;;;;;;12.84;91.26;98855.38;4419947;32;20415;-73
2020/12/19 03:44:16;;;;;;;6.62;2.37;;;;;;;12.85;91.38;98867.41;4415215;32;20076;-73
2020/12/19 03:46:42;;;;;;;4.22;2.20;;;;;;;12.70;92.70;98867.53;4415170;32;20073;-74
2020/12/19 03:49:08;;;;;;;10.98;2.37;;;;;;;12.75;92.40;98872.47;4417883;32;20463;-72
2020/12/19 03:51:33;;;;;;;9.82;2.12;;;;;;;12.79;91.42;98870.19;4416892;32;20090;-73
2020/12/19 03:54:00;;;;;;;6.05;2.15;;;;;;;12.80;91.73;98883.06;4416890;32;20026;-73
2020/12/19 03:56:26;;;;;;;7.55;2.20;;;;;;;12.77;92.53;98886.09;4417518;32;20088;-73
2020/12/19 03:58:52;;;;;;;9.07;2.20;;;;;;;12.75;93.30;98900.69;4418171;32;20073;-72
2020/12/19 04:01:17;;;;;;;9.70;2.25;;;;;;;12.82;94.21;98893.84;4417734;32;20093;-72
2020/12/19 04:03:43;;;;;;;10.50;1.95;;;;;;;12.68;97.22;98887.03;4416099;32;20037;-72
2020/12/19 04:06:08;;;;;;;4.80;1.65;;;;;;;12.51;96.51;98897.34;4419084;32;20089;-72
2020/12/19 04:08:34;;;;;;;3.15;1.40;;;;;;;12.50;98.13;98884.53;4419937;32;20092;-71
2020/12/19 04:11:00;;;;;;;6.57;1.40;;;;;;;12.49;97.73;98899.88;4417683;32;20050;-70
2020/12/19 04:13:25;;;;;;;3.87;0.90;;;;;;;12.28;95.74;98895.56;4418359;32;20065;-73
2020/12/19 04:15:51;;;;;;;5.95;0.70;;;;;;;13.70;87.19;98895.37;4415612;32;20073;-73
2020/12/19 04:18:17;;;;;;;3.47;0.52;;;;;;;12.77;89.01;98889.69;4412562;32;20563;-73
2020/12/19 04:20:42;;;;;;;5.25;0.85;;;;;;;12.26;91.91;98886.81;4416576;32;20100;-72
2020/12/19 04:23:08;;;;;;;7.12;1.27;;;;;;;12.16;89.24;98885.41;4420877;32;20094;-72
2020/12/19 04:25:33;;;;;;;3.75;0.60;;;;;;;11.98;90.08;98874.41;4416711;32;20140;-70
2020/12/19 04:27:59;;;;;;;4.53;0.70;;;;;;;11.94;90.22;98883.06;4419168;32;20116;-73
2020/12/19 04:30:24;;;;;;;3.53;0.52;;;;;;;11.90;89.85;98876.09;4418402;32;20358;-73
2020/12/19 04:32:50;;;;;;;4.97;0.47;;;;;;;11.82;89.97;98878.53;4419861;32;20034;-73
2020/12/19 04:35:16;;;;;;;5.12;0.60;;;;;;;11.89;90.03;98880.97;4413762;32;20107;-71
2020/12/19 04:37:41;;;;;;;3.42;0.70;;;;;;;11.83;89.23;98873.69;4420686;32;20038;-71
2020/12/19 04:40:07;;;;;;;1.90;0.55;;;;;;;11.94;89.45;98873.84;4421212;32;20057;-70
2020/12/19 04:42:34;;;;;;;5.93;0.77;;;;;;;11.91;89.15;98866.37;4422606;32;20033;-71
2020/12/19 04:45:00;;;;;;;3.50;0.20;;;;;;;12.08;89.39;98858.91;4423750;32;20064;-72
2020/12/19 04:47:26;;;;;;;4.82;0.30;;;;;;;12.00;87.63;98852.91;4411645;32;20038;-71
2020/12/19 04:49:52;;;;;;;3.37;0.43;;;;;;;12.13;87.73;98857.41;4420434;32;20049;-72
2020/12/19 04:52:19;;;;;;;1.90;0.30;;;;;;;12.14;87.50;98862.56;4424790;32;20045;-72
2020/12/19 04:54:45;;;;;;;1.90;0.20;;;;;;;12.04;87.05;98856.31;4422712;32;20037;-72
2020/12/19 04:57:18;;;;;;;2.87;0.28;;;;;;;12.09;86.88;98857.66;4421394;32;20099;-71
2020/12/19 04:59:45;;;;;;;1.83;0.57;;;;;;;12.29;86.65;98870.94;4417319;32;20521;-73
2020/12/19 05:02:10;;;;;;;2.22;0.40;;;;;;;12.28;86.65;98870.19;4424936;32;20091;-70
2020/12/19 05:04:38;;;;;;;2.92;0.20;;;;;;;12.29;86.94;98873.75;4420651;32;20030;-70
2020/12/19 05:07:07;;;;;;;3.53;0.50;;;;;;;12.38;86.73;98867.97;4418795;32;20067;-73
2020/12/19 05:09:38;;;;;;;2.17;0.32;;;;;;;12.29;86.32;98863.25;4419947;32;20113;-73
2020/12/19 05:12:04;;;;;;;2.47;0.30;;;;;;;12.26;86.39;98864.25;4423171;32;20101;-73
2020/12/19 05:14:31;;;;;;;2.17;0.60;;;;;;;12.23;86.87;98856.78;4415587;32;20083;-72
2020/12/19 05:16:58;;;;;;;1.67;0.10;;;;;;;12.21;85.97;98869.84;4417153;32;20518;-73
2020/12/19 05:19:26;;;;;;;6.75;0.45;;;;;;;12.22;85.96;98865.72;4422324;32;20045;-72
2020/12/19 05:21:54;;;;;;;2.55;0.25;;;;;;;12.26;86.62;98855.00;4417169;32;20043;-72
2020/12/19 05:24:27;;;;;;;4.35;0.40;;;;;;;12.17;87.03;98839.00;4417667;32;20049;-74
2020/12/19 05:26:53;;;;;;;1.35;0.50;;;;;;;12.29;87.47;98835.06;4415535;32;20057;-73
2020/12/19 05:29:19;;;;;;;1.90;0.50;;;;;;;12.24;87.76;98832.94;4421075;32;20144;-72
2020/12/19 05:31:53;;;;;;;3.87;0.57;;;;;;;12.18;87.31;98843.37;4420694;32;20399;-74
2020/12/19 05:34:20;;;;;;;3.65;0.50;;;;;;;12.30;86.34;98833.03;4418775;32;20112;-73
2020/12/19 05:36:50;;;;;;;3.30;0.65;;;;;;;12.24;85.29;98830.13;4422687;32;20452;-73
2020/12/19 05:39:17;;;;;;;3.75;0.50;;;;;;;12.22;85.01;98818.56;4421625;32;20340;-71
2020/12/19 05:41:43;;;;;;;4.90;0.60;;;;;;;12.23;85.16;98817.28;4425403;32;21629;-72
2020/12/19 05:44:09;;;;;;;2.60;0.52;;;;;;;12.28;85.35;98819.41;4423704;32;20068;-72
2020/12/19 05:46:37;;;;;;;4.05;0.52;;;;;;;12.19;84.13;98816.75;4422719;32;20041;-70
2020/12/19 05:49:06;;;;;;;2.03;0.40;;;;;;;12.26;83.79;98802.22;4406346;32;20133;-71
2020/12/19 05:51:34;;;;;;;3.47;0.62;;;;;;;12.20;83.54;98826.75;4421751;32;20073;-73
2020/12/19 05:54:02;;;;;;;1.25;0.47;;;;;;;12.22;83.19;98826.25;4425902;32;20084;-74
2020/12/19 05:56:29;;;;;;;1.83;0.43;;;;;;;12.19;83.37;98836.47;4422502;32;20196;-72
2020/12/19 05:59:00;;;;;;;2.47;0.50;;;;;;;12.16;83.86;98828.22;4421828;32;20038;-72
2020/12/19 06:01:25;;;;;;;4.35;0.65;;;;;;;12.17;84.33;98826.94;4418867;32;20046;-75
2020/12/19 06:03:54;;;;;;;2.67;0.55;;;;;;;12.20;84.38;98821.09;4419171;32;20497;-73
2020/12/19 06:06:23;;;;;;;2.65;0.40;;;;;;;12.13;83.81;98815.12;4425583;32;20103;-73
2020/12/19 06:08:49;;;;;;;2.60;0.52;;;;;;;12.20;84.64;98797.75;4419305;32;20054;-74
2020/12/19 06:11:18;;;;;;;4.93;1.20;;;;;;;12.25;85.23;98797.06;4418335;32;20030;-73
2020/12/19 06:13:49;;;;;;;3.85;1.50;;;;;;;12.37;84.69;98815.66;4420091;32;20038;-73
2020/12/19 06:16:17;;;;;;;3.55;1.60;;;;;;;12.49;83.68;98817.31;4417655;32;20056;-72
2020/12/19 06:21:19;;;;;;;2.40;1.00;;;;;;;13.12;82.69;98838.69;3983628;32;15086031;-72
2020/12/19 06:23:45;;;;;;;2.55;1.25;;;;;;;13.12;82.69;98838.69;4439491;32;20021;-72
2020/12/19 06:26:13;;;;;;;3.72;1.10;;;;;;;12.78;83.77;98834.00;4437834;32;20074;-73
2020/12/19 06:31:18;;;;;;;3.17;0.93;;;;;;;13.12;82.59;98845.13;3957523;32;15722565;-71
2020/12/19 06:33:46;;;;;;;5.05;1.12;;;;;;;13.12;82.59;98845.13;4438628;32;20038;-73
2020/12/19 06:38:55;;;;;;;4.70;1.30;;;;;;;12.93;83.66;98831.84;3994173;32;15019341;-71
2020/12/19 06:41:43;;;;;;;4.25;1.62;;;;;;;12.93;83.66;98831.84;4457725;32;20135;-72
2020/12/19 06:46:54;;;;;;;4.40;1.40;;;;;;;12.86;83.86;98838.69;3984137;32;15028155;-73
2020/12/19 06:54:41;;;;;;;4.85;1.35;;;;;;;12.68;84.03;98844.72;4009661;31;15018490;-70
2020/12/19 06:57:28;;;;;;;6.80;1.65;;;;;;;12.56;83.80;98839.44;4467067;32;20102;-73
2020/12/19 07:00:14;;;;;;;3.72;1.12;;;;;;;12.63;83.98;98833.34;4466907;32;20029;-72
2020/12/19 07:02:57;;;;;;;;;;;;;;;12.75;83.93;98838.59;4469259;32;20468;-72
2020/12/19 07:05:29;;;;;;;4.62;1.37;;;;;;;12.90;82.90;98841.31;4469533;32;19948;-72
2020/12/19 07:08:18;;;;;;;3.85;1.00;;;;;;;12.76;83.28;98842.97;4466558;32;20114;-70
2020/12/19 07:10:45;;;;;;;4.05;1.15;;;;;;;12.80;82.51;98849.19;4464070;32;20495;-72
2020/12/19 07:13:11;;;;;;;7.55;1.55;;;;;;;12.88;82.19;98852.31;4472445;32;20094;-72
2020/12/19 07:15:42;;;;;;;5.55;1.50;;;;;;;12.81;82.08;98866.88;4466469;32;20077;-73
2020/12/19 07:23:40;;;;;;;6.97;1.00;;;;;;;13.39;80.38;98867.16;3990854;31;15013369;-70
2020/12/19 07:26:06;;;;;;;6.20;1.12;;;;;;;12.98;81.06;98862.94;4443342;32;20152;-73
2020/12/19 07:28:33;;;;;;;6.30;1.23;;;;;;;12.98;80.25;98860.09;4438490;32;20080;-71
2020/12/19 07:30:59;;;;;;;8.75;1.50;;;;;;;12.95;80.06;98855.47;4443875;32;20473;-74
2020/12/19 07:33:25;;;;;;;6.50;1.40;;;;;;;12.97;79.47;98852.13;4437402;32;20138;-73
2020/12/19 07:35:51;;;;;;;10.23;1.30;;;;;;;12.85;78.86;98859.72;4427674;32;20029;-72
2020/12/19 07:38:20;;;;;;;6.03;1.20;;;;;;;12.81;79.37;98853.56;4424427;32;20057;-70
2020/12/19 07:40:53;;;;;;;7.05;1.50;;;;;;;12.80;78.87;98852.00;4427890;32;20093;-73
2020/12/19 07:43:21;;;;;;;5.28;1.15;;;;;;;12.85;79.27;98854.09;4421628;32;20077;-71
2020/12/19 07:45:49;;;;;;;9.82;1.42;;;;;;;12.78;78.90;98848.91;4429402;32;20029;-72
2020/12/19 07:48:15;;;;;;;7.07;1.20;;;;;;;12.74;79.73;98858.88;4421617;32;20374;-73
2020/12/19 07:50:41;;;;;;;10.80;1.83;;;;;;;12.61;79.53;98864.13;4426022;32;20096;-70
2020/12/19 07:53:08;;;;;;;4.22;1.02;;;;;;;12.48;79.77;98878.59;4429154;32;20080;-71
2020/12/19 07:55:35;;;;;;;14.50;1.70;;;;;;;12.58;79.98;98870.75;4427268;32;20064;-73
2020/12/19 07:58:02;;;;;;;6.40;1.48;;;;;;;12.55;80.10;98871.75;4425605;32;20112;-73
2020/12/19 08:00:29;;;;;;;9.05;1.60;;;;;;;12.47;80.08;98879.87;4424013;32;20042;-75
2020/12/19 08:02:55;;;;;;;9.48;1.40;;;;;;;12.45;79.92;98882.41;4425106;32;20118;-74
2020/12/19 08:05:21;;;;;;;4.15;1.30;;;;;;;12.51;79.18;98879.66;4421466;32;20465;-71
2020/12/19 08:07:54;;;;;;;7.47;1.58;;;;;;;12.58;79.01;98868.69;4423370;32;20026;-71
2020/12/19 08:10:21;;;;;;;7.70;1.45;;;;;;;12.41;80.35;98879.03;4424077;32;20056;-72
2020/12/19 08:12:48;;;;;;;6.47;1.50;;;;;;;12.31;80.87;98876.88;4424926;32;20038;-72
2020/12/19 08:15:23;;;;;;;6.07;1.87;;;;;;;12.32;80.57;98884.03;4425931;32;20033;-71
2020/12/19 08:17:53;;;;;;;10.20;1.33;;;;;;;12.31;79.95;98885.31;4423079;32;20046;-72
2020/12/19 08:20:23;;;;;;;10.50;1.40;;;;;;;12.24;80.56;98897.03;4425346;32;20091;-73
2020/12/19 08:22:49;;;;;;;8.70;1.73;;;;;;;12.33;79.51;98902.53;4422521;32;20042;-73
2020/12/19 08:25:15;;;;;;;5.20;1.12;;;;;;;12.47;79.57;98907.31;4427012;32;20073;-72
2020/12/19 08:27:43;;;;;;;7.85;1.10;;;;;;;12.41;78.82;98881.84;4422768;32;20239;-71
2020/12/19 08:35:39;;;;;;;8.63;1.62;;;;;;;12.91;78.19;98925.50;3985551;32;15024733;-72
2020/12/19 08:40:45;;;;;;;15.23;2.55;;;;;;;12.81;77.70;98929.75;3989333;32;15021893;-72
2020/12/19 08:43:13;;;;;;;9.13;1.15;;;;;;;12.81;77.70;98929.75;4442040;32;20024;-74
2020/12/19 08:48:23;;;;;;;4.37;1.10;;;;;;;13.03;77.07;98932.03;3983848;32;15025230;-74
2020/12/19 08:50:49;;;;;;;;;;;;;;;13.03;77.07;98932.03;4437264;32;20130;-72
2020/12/19 08:53:18;;;;;;;8.02;1.02;;;;;;;12.56;77.98;98924.09;4438779;32;20418;-74
2020/12/19 08:55:45;;;;;;;6.47;1.02;;;;;;;12.61;78.03;98934.66;4436609;32;20089;-73
2020/12/19 08:58:29;;;;;;;10.30;1.37;;;;;;;12.52;77.71;98923.53;4429649;32;20041;-71
2020/12/19 09:00:57;;;;;;;6.18;1.20;;;;;;;12.68;76.85;98937.84;4435011;32;20029;-72
2020/12/19 09:03:33;;;;;;;8.07;1.00;;;;;;;12.71;76.65;98933.22;4436271;32;20112;-72
2020/12/19 09:06:04;;;;;;;7.30;1.45;;;;;;;12.69;76.91;98925.25;4438352;32;20800;-73
2020/12/19 09:08:33;;;;;;;10.70;2.25;;;;;;;12.70;76.54;98923.22;4435975;32;20100;-71
2020/12/19 09:10:59;;;;;;;8.88;1.17;;;;;;;12.73;76.14;98930.69;4438421;32;20073;-73
2020/12/19 09:13:25;;;;;;;9.18;1.50;;;;;;;12.60;76.34;98931.06;4442964;32;20026;-75
2020/12/19 09:15:56;;;;;;;6.10;1.48;;;;;;;12.57;76.82;98928.44;4436220;32;20042;-73
2020/12/19 09:18:32;;;;;;;7.30;1.30;;;;;;;12.39;76.94;98940.81;4436816;32;20087;-74
2020/12/19 09:20:59;;;;;;;9.50;1.67;;;;;;;12.52;76.95;98943.28;4437779;32;20088;-74
2020/12/19 09:23:27;;;;;;;11.23;1.73;;;;;;;12.41;76.16;98951.59;4439102;32;20415;-73
2020/12/19 09:25:54;;;;;;;11.27;1.83;;;;;;;12.39;75.41;98952.09;4432633;32;20037;-72
2020/12/19 09:28:21;;;;;;;10.68;1.50;;;;;;;12.34;75.98;98952.03;4433979;32;20077;-72
2020/12/19 09:30:47;;;;;;;9.27;1.80;;;;;;;12.53;75.24;98954.06;4438797;32;20177;-72
2020/12/19 09:33:12;;;;;;;6.00;1.27;;;;;;;12.46;74.69;98960.16;4431871;32;20021;-75
2020/12/19 09:35:38;;;;;;;6.95;1.35;;;;;;;12.52;74.71;98955.31;4428801;32;20124;-75
2020/12/19 09:38:04;;;;;;;10.68;1.98;;;;;;;12.51;74.24;98959.41;4416767;32;20072;-73
2020/12/19 09:40:30;;;;;;;10.38;1.52;;;;;;;12.61;74.64;98969.28;4422504;32;20035;-73
2020/12/19 09:42:57;;;;;;;11.43;1.60;;;;;;;12.67;73.18;98966.56;4423734;32;20021;-73
2020/12/19 09:45:23;;;;;;;12.32;1.80;;;;;;;12.75;72.79;98982.53;4421710;32;20132;-72
2020/12/19 09:47:52;;;;;;;14.82;1.83;;;;;;;12.77;73.69;98979.22;4419328;32;20018;-72
2020/12/19 09:50:18;;;;;;;7.78;1.80;;;;;;;12.94;73.35;98980.97;4422237;32;20092;-72
2020/12/19 09:52:43;;;;;;;9.65;1.83;;;;;;;12.85;73.13;98980.31;4418938;32;20042;-75
2020/12/19 09:55:09;;;;;;;8.23;1.48;;;;;;;12.82;71.86;98989.81;4420835;32;20078;-73
2020/12/19 09:57:35;;;;;;;12.32;2.22;;;;;;;12.83;72.25;98989.31;4423439;32;20022;-73
2020/12/19 10:00:03;;;;;;;9.55;1.35;;;;;;;13.09;72.62;99001.44;4409466;32;20370;-74
2020/12/19 10:02:29;;;;;;;9.52;1.65;;;;;;;12.88;71.54;98984.97;4408546;32;20073;-74
2020/12/19 10:04:55;;;;;;;8.75;1.60;;;;;;;12.76;72.42;98986.91;4409810;32;20031;-73
2020/12/19 10:07:21;;;;;;;13.27;2.40;;;;;;;12.61;71.98;98999.56;4411610;32;20781;-72
2020/12/19 10:09:46;;;;;;;13.13;1.62;;;;;;;12.51;72.42;99015.84;4410358;32;20129;-74
2020/12/19 10:12:12;;;;;;;6.82;1.58;;;;;;;12.41;72.58;98996.72;4412919;32;20156;-75
2020/12/19 10:14:38;;;;;;;9.63;1.95;;;;;;;12.43;72.73;98992.16;4413353;32;20061;-76
2020/12/19 10:17:03;;;;;;;12.82;1.60;;;;;;;12.39;72.23;98994.41;4406123;32;20374;-74
2020/12/19 10:19:29;;;;;;;8.98;1.58;;;;;;;12.43;72.60;98994.97;4411285;32;20569;-75
2020/12/19 10:21:55;;;;;;;9.95;1.62;;;;;;;12.34;72.53;98997.94;4416265;32;20070;-75
2020/12/19 10:24:20;;;;;;;11.15;3.45;;;;;;;12.34;72.94;99000.75;4407504;32;20070;-76
2020/12/19 10:26:47;;;;;;;9.93;1.42;;;;;;;12.46;72.39;98998.84;4412963;32;20030;-74
2020/12/19 10:29:14;;;;;;;9.70;1.67;;;;;;;12.40;72.16;99006.47;4412140;32;20065;-76
2020/12/19 10:31:40;;;;;;;8.38;1.77;;;;;;;12.47;72.04;98995.53;4404847;32;20369;-76
2020/12/19 10:34:06;;;;;;;12.75;2.70;;;;;;;12.37;71.90;98996.97;4409980;32;20039;-75
2020/12/19 10:36:31;;;;;;;14.43;1.62;;;;;;;12.38;72.36;98994.87;4409585;32;20390;-76
2020/12/19 10:38:58;;;;;;;18.00;2.30;;;;;;;12.46;71.98;98999.62;4408194;32;20767;-76
2020/12/19 10:41:23;;;;;;;17.80;2.00;;;;;;;12.51;71.10;98989.66;4408369;32;20066;-75
2020/12/19 10:43:49;;;;;;;17.95;2.78;;;;;;;12.67;70.97;98995.53;4404998;32;20034;-75
2020/12/19 10:46:20;;;;;;;15.25;1.77;;;;;;;12.70;70.39;99002.25;4408704;32;20423;-76
2020/12/19 10:48:46;;;;;;;14.48;2.10;;;;;;;12.64;70.05;98993.69;4409183;32;20120;-77
2020/12/19 10:51:12;;;;;;;12.95;1.90;;;;;;;12.57;70.20;98994.13;4411957;32;21141;-77
2020/12/19 10:53:37;;;;;;;11.68;1.83;;;;;;;12.76;70.34;98992.56;4409264;32;20093;-77
2020/12/19 10:56:03;;;;;;;19.23;1.90;;;;;;;12.55;68.50;99010.00;4412092;32;20034;-76
2020/12/19 10:58:28;;;;;;;13.68;3.65;;;;;;;12.58;69.93;98997.72;4404504;32;20077;-77
2020/12/19 11:00:54;;;;;;;12.35;1.77;;;;;;;12.82;69.32;99003.94;4411658;32;20056;-75
2020/12/19 11:03:20;;;;;;;16.23;1.65;;;;;;;12.77;69.52;99004.63;4404499;32;20022;-78
2020/12/19 11:05:45;;;;;;;10.07;1.75;;;;;;;12.73;69.95;99009.72;4411462;32;20396;-77
2020/12/19 11:08:11;;;;;;;15.07;2.35;;;;;;;12.84;69.42;99013.44;4409234;32;21331;-75
2020/12/19 11:10:36;;;;;;;16.52;1.67;;;;;;;12.68;69.32;99001.94;4408082;32;20117;-78
2020/12/19 11:13:03;;;;;;;15.20;1.77;;;;;;;12.64;68.65;99001.41;4414405;32;20022;-76
2020/12/19 11:15:30;;;;;;;16.77;2.47;;;;;;;12.85;66.97;99012.16;4411641;32;20069;-76
2020/12/19 11:17:56;;;;;;;15.70;2.53;;;;;;;12.87;67.55;99000.38;4408631;32;20117;-75
2020/12/19 11:20:22;;;;;;;17.60;2.03;;;;;;;12.94;66.95;98992.25;4411037;32;20079;-77
2020/12/19 11:22:48;;;;;;;9.43;1.90;;;;;;;13.15;66.08;98985.31;4412452;32;20088;-74
2020/12/19 11:25:15;;;;;;;11.75;1.85;;;;;;;13.16;66.29;98988.94;4411420;32;20392;-77
2020/12/19 11:27:41;;;;;;;16.92;1.85;;;;;;;13.18;65.89;98992.03;4410472;32;20539;-76
2020/12/19 11:30:07;;;;;;;15.95;2.22;;;;;;;13.21;65.22;98997.47;4412751;32;20021;-76
2020/12/19 11:32:34;;;;;;;13.88;1.92;;;;;;;13.06;65.66;98979.84;4413132;32;20075;-75
2020/12/19 11:34:59;;;;;;;24.52;2.53;;;;;;;13.25;65.12;98994.37;4412914;32;20109;-74
2020/12/19 11:37:25;;;;;;;13.07;1.92;;;;;;;13.29;65.03;98987.25;4410501;32;20073;-77
2020/12/19 11:39:52;;;;;;;12.80;2.05;;;;;;;13.16;64.96;98989.69;4408036;32;20065;-74
2020/12/19 11:42:17;;;;;;;10.77;2.00;;;;;;;12.85;65.73;98997.25;4407249;32;20049;-75
2020/12/19 11:44:43;;;;;;;17.10;2.47;;;;;;;12.78;65.99;98984.38;4406383;32;20034;-77
2020/12/19 11:47:08;;;;;;;14.38;1.87;;;;;;;12.79;66.23;98993.63;4407740;32;20389;-77
2020/12/19 11:49:34;;;;;;;12.10;1.80;;;;;;;12.70;66.72;98994.53;4409119;32;20453;-77
2020/12/19 11:52:00;;;;;;;18.08;2.05;;;;;;;12.74;67.32;98999.97;4410853;32;20104;-77
2020/12/19 11:54:26;;;;;;;11.93;2.12;;;;;;;12.67;67.61;99004.00;4409794;32;20092;-76
2020/12/19 11:56:51;;;;;;;15.10;1.95;;;;;;;12.60;67.83;98995.16;4411836;32;20452;-73
2020/12/19 11:59:17;;;;;;;15.48;2.67;;;;;;;12.70;68.69;98986.06;4405644;32;20097;-72
2020/12/19 12:01:43;;;;;;;15.70;1.80;;;;;;;12.57;68.06;98985.66;4410653;32;20026;-74
2020/12/19 12:04:08;;;;;;;13.93;1.98;;;;;;;12.62;68.00;99001.91;4411062;32;20052;-73